モントリオール/トルドー の空港の天気 - METARとTAF

モントリオール・ピエール・エリオット・トルドー国際空港 ( CYUL / YUL ) - カナダ ケベック州モントリオール
飛行場実況気象(Metar)
観測時間12/15 07:00 EST (12/15 12:00 UTC)
風向・風速南西 5m/s
視程10km以上
天気現象
全天を覆う雲 雲底高度 1070m
気温2℃
湿度93%
気圧1022.2hPa
METARCYUL 151200Z 23010KT 12SM OVC035 02/01 A3018 RMK SC8 SLP222
過去の天気等 Google飛行場航空写真 Wunderground天気予報

過去48時間のMETAR

飛行場予報(TAF)
発表時間: 12/15 06:38 EST (12/15 11:38 UTC)
予報対象時間: 15日7時 EST ~ 16日7時 EST
風向・風速南西 6m/s
視程10km以上
全天の8割程度の雲 雲底高度 910m
15日9時 EST から
風向・風速西南西 6m/s
視程10km以上
全天の4割程度の雲 雲底高度 910m
15日15時 EST から
風向・風速西南西 4m/s
視程10km以上
なし
15日18時 EST ~ 15日20時 EST に徐々に
風向・風速不定 2m/s
16日0時 EST から
風向・風速北北東 3m/s
視程10km以上
天気現象もや
なし
16日0時 EST から 確率 30% で
視程3220m
天気現象もや
全天の8割程度の雲 雲底高度 210m
16日3時 EST から
風向・風速東北東 4m/s
視程6440m
天気現象もや
全天の4割程度の雲 雲底高度 150m
16日3時 EST から 確率 40% で
視程1610m
天気現象もや
全天の8割程度の雲 雲底高度 150m
TAF CYUL 151138Z 1512/1612 23012KT P6SM BKN030
FM151400 24012KT P6SM SCT030
FM152000 24007KT P6SM SKC
BECMG 1523/1601 VRB03KT
FM160500 03005KT 6SM BR SKC
PROB30 1605/1608 2SM BR BKN007
FM160800 07007KT 4SM BR SCT005
PROB40 1608/1612 1SM BR BKN005 RMK NXT FCST BY 151500Z